Time;durP1;ratioP1;P1;durP2;ratioP2;P2;SDS_P1;SDS_P2;PMS_P1;PMS_P2;Temp;Humidity;BMP_temperature;BMP_pressure;BME280_temperature;BME280_humidity;BME280_pressure;Samples;Min_cycle;Max_cycle;Signal;HPM_P1;HPM_P2
2022/03/06 00:01:17;;;;;;;53.10;20.63;;;;;;;;;;4968261;28;100650;-72
2022/03/06 00:03:44;;;;;;;52.25;21.45;;;;;;;;;;4950495;28;100152;-72
2022/03/06 00:06:13;;;;;;;53.47;20.67;;;;;;;;;;4967163;28;100152;-72
2022/03/06 00:08:41;;;;;;;57.03;21.10;;;;;;;;;;4950628;28;101425;-71
2022/03/06 00:11:08;;;;;;;54.83;19.42;;;;;;;;;;4965622;28;100912;-73
2022/03/06 00:13:35;;;;;;;64.65;23.73;;;;;;;;;;4968452;28;100052;-72
2022/03/06 00:16:03;;;;;;;64.68;22.13;;;;;;;;;;4967196;28;100256;-71
2022/03/06 00:18:29;;;;;;;49.97;21.27;;;;;;;;;;4967124;28;100698;-71
2022/03/06 00:20:59;;;;;;;54.55;20.63;;;;;;;;;;4970410;28;100752;-71
2022/03/06 00:23:28;;;;;;;66.97;24.58;;;;;;;;;;4970544;28;100095;-71
2022/03/06 00:25:56;;;;;;;53.50;21.02;;;;;;;;;;4970319;28;100266;-72
2022/03/06 00:28:23;;;;;;;54.88;20.58;;;;;;;;;;4953245;28;100160;-72
2022/03/06 00:30:50;;;;;;;55.10;21.52;;;;;;;;;;4986395;28;101226;-71
2022/03/06 00:33:17;;;;;;;54.58;21.52;;;;;;;;;;4970171;28;100124;-72
2022/03/06 00:35:44;;;;;;;51.03;19.45;;;;;;;;;;4970166;28;100438;-72
2022/03/06 00:38:10;;;;;;;47.42;18.65;;;;;;;;;;4971093;28;100125;-71
2022/03/06 00:40:41;;;;;;;49.67;20.38;;;;;;;;;;4969646;28;101775;-71
2022/03/06 00:43:08;;;;;;;54.58;22.15;;;;;;;;;;4971046;28;100061;-71
2022/03/06 00:45:35;;;;;;;51.22;19.33;;;;;;;;;;4971305;28;100642;-71
2022/03/06 00:48:02;;;;;;;53.80;20.77;;;;;;;;;;4970457;28;100116;-71
2022/03/06 00:50:29;;;;;;;61.55;25.05;;;;;;;;;;4972224;28;100687;-71
2022/03/06 00:52:57;;;;;;;53.63;20.35;;;;;;;;;;4970066;28;100001;-71
2022/03/06 00:55:24;;;;;;;53.60;20.95;;;;;;;;;;4954994;28;100209;-72
2022/03/06 00:57:51;;;;;;;53.25;21.25;;;;;;;;;;4971854;28;100585;-71
2022/03/06 01:00:18;;;;;;;61.00;22.00;;;;;;;;;;4969917;28;102883;-71
2022/03/06 01:02:44;;;;;;;66.40;24.52;;;;;;;;;;4970583;28;100137;-71
2022/03/06 01:05:11;;;;;;;53.95;20.73;;;;;;;;;;4971950;28;99966;-71
2022/03/06 01:07:38;;;;;;;62.20;21.65;;;;;;;;;;4970795;28;100242;-72
2022/03/06 01:10:06;;;;;;;64.75;23.55;;;;;;;;;;4954467;28;100690;-71
2022/03/06 01:12:34;;;;;;;62.28;24.42;;;;;;;;;;4970666;28;100089;-71
2022/03/06 01:15:01;;;;;;;66.80;24.55;;;;;;;;;;4971855;28;99867;-71
2022/03/06 01:17:28;;;;;;;53.08;21.38;;;;;;;;;;4953816;28;100205;-71
2022/03/06 01:19:55;;;;;;;62.50;22.63;;;;;;;;;;4954046;28;100743;-71
2022/03/06 01:22:21;;;;;;;47.13;19.20;;;;;;;;;;4970348;28;100170;-71
2022/03/06 01:24:48;;;;;;;67.68;23.92;;;;;;;;;;4948668;28;102358;-72
2022/03/06 01:27:15;;;;;;;57.72;23.17;;;;;;;;;;4970172;28;100277;-71
2022/03/06 01:29:42;;;;;;;65.63;24.73;;;;;;;;;;4970932;28;100727;-71
2022/03/06 01:32:09;;;;;;;55.08;20.67;;;;;;;;;;4970902;28;99961;-71
2022/03/06 01:34:35;;;;;;;65.75;24.33;;;;;;;;;;4986775;28;100051;-73
2022/03/06 01:37:02;;;;;;;45.30;20.77;;;;;;;;;;4969600;28;100777;-71
2022/03/06 01:39:29;;;;;;;56.88;24.00;;;;;;;;;;4970983;28;103805;-71
2022/03/06 01:41:56;;;;;;;63.83;22.83;;;;;;;;;;4970961;28;100363;-71
2022/03/06 01:44:22;;;;;;;64.20;22.98;;;;;;;;;;4971142;28;99956;-71
2022/03/06 01:46:49;;;;;;;55.50;22.95;;;;;;;;;;4953347;28;100242;-72
2022/03/06 01:49:16;;;;;;;70.53;24.70;;;;;;;;;;4953794;28;101233;-71
2022/03/06 01:51:43;;;;;;;63.83;25.67;;;;;;;;;;4953982;28;100081;-71
2022/03/06 01:54:10;;;;;;;61.83;24.38;;;;;;;;;;4953827;28;99954;-71
2022/03/06 01:56:37;;;;;;;58.72;23.27;;;;;;;;;;4986268;28;100116;-71
2022/03/06 01:59:04;;;;;;;51.50;21.30;;;;;;;;;;4969717;28;101074;-72
2022/03/06 02:01:32;;;;;;;80.78;29.30;;;;;;;;;;4971080;28;100001;-71
2022/03/06 02:03:59;;;;;;;71.10;26.25;;;;;;;;;;4953822;28;100096;-71
2022/03/06 02:06:27;;;;;;;64.57;26.02;;;;;;;;;;4970136;28;100206;-72
2022/03/06 02:08:54;;;;;;;57.25;21.98;;;;;;;;;;4953129;28;100736;-71
2022/03/06 02:11:23;;;;;;;61.28;23.83;;;;;;;;;;4969392;28;99963;-72
2022/03/06 02:13:50;;;;;;;70.75;26.17;;;;;;;;;;4953747;28;100043;-72
2022/03/06 02:16:17;;;;;;;65.65;25.45;;;;;;;;;;4969259;28;101711;-72
2022/03/06 02:18:44;;;;;;;66.28;25.90;;;;;;;;;;4969387;28;100539;-72
2022/03/06 02:21:12;;;;;;;71.88;29.17;;;;;;;;;;4970827;28;100098;-70
2022/03/06 02:23:39;;;;;;;68.00;25.80;;;;;;;;;;4953670;28;100145;-70
2022/03/06 02:26:06;;;;;;;65.57;25.75;;;;;;;;;;4969281;28;100314;-71
2022/03/06 02:28:34;;;;;;;55.97;24.40;;;;;;;;;;4969039;28;100706;-71
2022/03/06 02:31:01;;;;;;;68.07;26.50;;;;;;;;;;4970099;28;100050;-71
2022/03/06 02:33:28;;;;;;;74.55;25.95;;;;;;;;;;4969141;28;100136;-71
2022/03/06 02:35:54;;;;;;;68.55;26.98;;;;;;;;;;4970341;28;100152;-71
2022/03/06 02:38:21;;;;;;;80.22;28.15;;;;;;;;;;4949617;28;101604;-71
2022/03/06 02:40:52;;;;;;;73.10;28.10;;;;;;;;;;4967069;28;100110;-71
2022/03/06 02:43:19;;;;;;;71.25;27.63;;;;;;;;;;4952255;28;100100;-72
2022/03/06 02:45:46;;;;;;;66.28;26.85;;;;;;;;;;4952305;28;100728;-71
2022/03/06 02:48:12;;;;;;;66.25;26.35;;;;;;;;;;4953068;28;100622;-71
2022/03/06 02:50:42;;;;;;;72.00;27.88;;;;;;;;;;4969279;28;100095;-71
2022/03/06 02:53:09;;;;;;;71.25;28.60;;;;;;;;;;4969160;28;100139;-71
2022/03/06 02:55:36;;;;;;;65.43;25.55;;;;;;;;;;4967415;28;100720;-71
2022/03/06 02:58:03;;;;;;;79.95;31.38;;;;;;;;;;4968938;28;100603;-71
2022/03/06 03:00:30;;;;;;;67.97;28.02;;;;;;;;;;4952941;28;100063;-71
2022/03/06 03:02:57;;;;;;;73.43;29.15;;;;;;;;;;4985553;28;100136;-71
2022/03/06 03:05:25;;;;;;;67.68;25.85;;;;;;;;;;4952428;28;100325;-71
2022/03/06 03:07:52;;;;;;;59.55;24.70;;;;;;;;;;4969347;28;100875;-72
2022/03/06 03:10:20;;;;;;;68.03;25.50;;;;;;;;;;4968972;28;100053;-71
2022/03/06 03:12:47;;;;;;;74.38;28.67;;;;;;;;;;4968814;28;100075;-71
2022/03/06 03:15:14;;;;;;;64.18;24.58;;;;;;;;;;4969886;28;100386;-72
2022/03/06 03:17:41;;;;;;;61.20;22.33;;;;;;;;;;4952472;28;102834;-71
2022/03/06 03:20:08;;;;;;;64.32;24.23;;;;;;;;;;4968076;28;100050;-71
2022/03/06 03:22:35;;;;;;;70.63;26.50;;;;;;;;;;4970068;28;100490;-72
2022/03/06 03:25:03;;;;;;;61.72;22.67;;;;;;;;;;4968310;28;100344;-71
2022/03/06 03:27:30;;;;;;;57.13;23.02;;;;;;;;;;4968207;28;100598;-72
2022/03/06 03:29:56;;;;;;;53.60;21.75;;;;;;;;;;4970019;28;100063;-71
2022/03/06 03:32:23;;;;;;;57.50;23.73;;;;;;;;;;4970066;28;100176;-71
2022/03/06 03:34:50;;;;;;;58.42;22.95;;;;;;;;;;4969459;28;100136;-71
2022/03/06 03:37:17;;;;;;;54.80;22.52;;;;;;;;;;4969671;28;100541;-74
2022/03/06 03:39:43;;;;;;;54.45;21.63;;;;;;;;;;4952263;28;100074;-71
2022/03/06 03:42:10;;;;;;;55.45;22.98;;;;;;;;;;4968706;28;100172;-72
2022/03/06 03:44:37;;;;;;;49.40;18.65;;;;;;;;;;4967845;28;100259;-72
2022/03/06 03:47:04;;;;;;;42.97;17.77;;;;;;;;;;4969360;28;100502;-72
2022/03/06 03:49:31;;;;;;;44.13;18.20;;;;;;;;;;4968561;28;100077;-72
2022/03/06 03:51:58;;;;;;;46.80;19.83;;;;;;;;;;4968199;28;100283;-72
2022/03/06 03:54:24;;;;;;;43.28;19.35;;;;;;;;;;4969170;28;100154;-72
2022/03/06 03:56:51;;;;;;;43.63;18.83;;;;;;;;;;4971596;28;100704;-72
2022/03/06 03:59:18;;;;;;;49.25;19.00;;;;;;;;;;4972960;28;99787;-72
2022/03/06 04:01:45;;;;;;;49.70;20.55;;;;;;;;;;4972090;28;100126;-70
2022/03/06 04:04:12;;;;;;;49.78;19.85;;;;;;;;;;4971154;28;101349;-71
2022/03/06 04:06:39;;;;;;;44.03;18.10;;;;;;;;;;4971642;28;100936;-71
2022/03/06 04:09:05;;;;;;;48.67;19.92;;;;;;;;;;4970685;28;100147;-71
2022/03/06 04:11:32;;;;;;;51.40;20.67;;;;;;;;;;4955343;28;100081;-71
2022/03/06 04:13:59;;;;;;;47.80;18.00;;;;;;;;;;4971309;28;100356;-71
2022/03/06 04:16:26;;;;;;;42.40;17.77;;;;;;;;;;4972033;28;100719;-71
2022/03/06 04:18:54;;;;;;;50.55;20.42;;;;;;;;;;4971109;28;100127;-71
2022/03/06 04:21:21;;;;;;;46.25;18.52;;;;;;;;;;4971210;28;103881;-71
2022/03/06 04:23:47;;;;;;;39.38;16.67;;;;;;;;;;4954564;28;100171;-71
2022/03/06 04:26:14;;;;;;;37.00;14.77;;;;;;;;;;4972895;28;100830;-71
2022/03/06 04:28:41;;;;;;;46.80;19.55;;;;;;;;;;4938565;28;101421;-71
2022/03/06 04:31:08;;;;;;;45.35;16.60;;;;;;;;;;4971253;28;99959;-71
2022/03/06 04:33:34;;;;;;;40.92;18.45;;;;;;;;;;4970435;28;100353;-71
2022/03/06 04:36:01;;;;;;;47.47;18.80;;;;;;;;;;4971079;28;100563;-71
2022/03/06 04:38:28;;;;;;;49.75;19.05;;;;;;;;;;4970876;28;100144;-72
2022/03/06 04:40:55;;;;;;;45.42;18.13;;;;;;;;;;4971043;28;99875;-71
2022/03/06 04:43:24;;;;;;;48.20;18.60;;;;;;;;;;4970966;28;100164;-71
2022/03/06 04:45:51;;;;;;;40.25;16.20;;;;;;;;;;4954781;28;100757;-71
2022/03/06 04:48:17;;;;;;;40.00;15.95;;;;;;;;;;4971036;28;100204;-72
2022/03/06 04:50:44;;;;;;;40.05;15.93;;;;;;;;;;4955174;28;99844;-71
2022/03/06 04:53:11;;;;;;;34.10;14.85;;;;;;;;;;4970545;28;100184;-71
2022/03/06 04:55:38;;;;;;;38.58;17.33;;;;;;;;;;4970098;28;101061;-71
2022/03/06 04:58:04;;;;;;;45.85;18.05;;;;;;;;;;4971659;28;101554;-71
2022/03/06 05:00:33;;;;;;;39.75;16.67;;;;;;;;;;4970616;28;99942;-72
2022/03/06 05:02:59;;;;;;;51.25;19.50;;;;;;;;;;4970641;28;100648;-71
2022/03/06 05:05:26;;;;;;;30.63;14.25;;;;;;;;;;4970571;28;100791;-71
2022/03/06 05:07:53;;;;;;;44.22;17.65;;;;;;;;;;4968821;28;100220;-73
2022/03/06 05:10:20;;;;;;;51.75;21.80;;;;;;;;;;4971652;28;99967;-71
2022/03/06 05:12:47;;;;;;;42.40;15.57;;;;;;;;;;4954231;28;101360;-71
2022/03/06 05:15:14;;;;;;;51.28;20.48;;;;;;;;;;4987365;28;100613;-71
2022/03/06 05:17:41;;;;;;;41.33;19.65;;;;;;;;;;4971441;28;99910;-71
2022/03/06 05:20:09;;;;;;;42.30;17.00;;;;;;;;;;4938107;28;100633;-70
2022/03/06 05:22:35;;;;;;;42.53;18.25;;;;;;;;;;4969709;28;100239;-71
2022/03/06 05:25:03;;;;;;;41.60;15.95;;;;;;;;;;4969935;28;101091;-70
2022/03/06 05:27:30;;;;;;;50.08;19.58;;;;;;;;;;4969975;28;99958;-70
2022/03/06 05:29:56;;;;;;;37.83;15.75;;;;;;;;;;4971468;28;100050;-71
2022/03/06 05:32:23;;;;;;;44.40;18.08;;;;;;;;;;4969918;28;100224;-71
2022/03/06 05:34:50;;;;;;;44.30;18.00;;;;;;;;;;4953838;28;100599;-71
2022/03/06 05:37:17;;;;;;;46.88;20.02;;;;;;;;;;4954062;28;100006;-71
2022/03/06 05:39:44;;;;;;;43.35;18.88;;;;;;;;;;4954234;28;100064;-71
2022/03/06 05:42:10;;;;;;;46.58;19.95;;;;;;;;;;4971034;28;100344;-71
2022/03/06 05:44:37;;;;;;;43.85;18.00;;;;;;;;;;4971166;28;100615;-71
2022/03/06 05:47:05;;;;;;;39.03;17.42;;;;;;;;;;4970541;28;100190;-71
2022/03/06 05:49:31;;;;;;;40.95;16.50;;;;;;;;;;4971433;28;100057;-71
2022/03/06 05:51:58;;;;;;;49.78;22.17;;;;;;;;;;4969837;28;100748;-71
2022/03/06 05:54:25;;;;;;;51.55;19.73;;;;;;;;;;4970832;28;100520;-71
2022/03/06 05:56:52;;;;;;;34.70;16.10;;;;;;;;;;4971137;28;100141;-71
2022/03/06 05:59:18;;;;;;;47.22;19.85;;;;;;;;;;4970948;28;100159;-72
2022/03/06 06:01:45;;;;;;;43.90;18.60;;;;;;;;;;4970603;28;100249;-71
2022/03/06 06:04:15;;;;;;;51.83;20.27;;;;;;;;;;4971047;28;100576;-71
2022/03/06 06:06:41;;;;;;;51.67;21.45;;;;;;;;;;4970835;28;100077;-71
2022/03/06 06:09:08;;;;;;;44.42;17.35;;;;;;;;;;4969025;28;100119;-71
2022/03/06 06:11:35;;;;;;;40.05;18.70;;;;;;;;;;4969878;28;101384;-71
2022/03/06 06:14:03;;;;;;;49.03;18.50;;;;;;;;;;4969538;28;100653;-71
2022/03/06 06:16:31;;;;;;;48.33;20.58;;;;;;;;;;4953379;28;100136;-71
2022/03/06 06:18:58;;;;;;;41.38;16.90;;;;;;;;;;4969176;28;100013;-71
2022/03/06 06:21:25;;;;;;;40.90;16.02;;;;;;;;;;4985694;28;101477;-72
2022/03/06 06:23:51;;;;;;;40.58;17.17;;;;;;;;;;4968950;28;101703;-72
2022/03/06 06:26:18;;;;;;;39.85;16.38;;;;;;;;;;4970710;28;99951;-73
2022/03/06 06:28:45;;;;;;;44.10;15.45;;;;;;;;;;4969691;28;100270;-71
2022/03/06 06:31:12;;;;;;;37.75;14.88;;;;;;;;;;4969400;28;100398;-71
2022/03/06 06:33:39;;;;;;;39.75;14.82;;;;;;;;;;4982852;28;100659;-71
2022/03/06 06:36:06;;;;;;;35.78;15.77;;;;;;;;;;4970204;28;100053;-71
2022/03/06 06:38:32;;;;;;;44.92;16.90;;;;;;;;;;4970559;28;100105;-71
2022/03/06 06:40:59;;;;;;;36.47;15.60;;;;;;;;;;4969035;28;100165;-71
2022/03/06 06:43:26;;;;;;;34.05;14.70;;;;;;;;;;4970049;28;100708;-71
2022/03/06 06:45:53;;;;;;;46.67;19.55;;;;;;;;;;4970546;28;99972;-71
2022/03/06 06:48:20;;;;;;;47.15;19.85;;;;;;;;;;4968593;28;100201;-72
2022/03/06 06:50:46;;;;;;;40.38;17.50;;;;;;;;;;4969101;28;100389;-71
2022/03/06 06:53:13;;;;;;;54.65;22.63;;;;;;;;;;4969360;28;102467;-71
2022/03/06 06:55:40;;;;;;;43.08;16.90;;;;;;;;;;4969034;28;101231;-72
2022/03/06 06:58:07;;;;;;;35.22;16.48;;;;;;;;;;4970142;28;100089;-72
2022/03/06 07:00:34;;;;;;;44.40;19.80;;;;;;;;;;4969575;28;100342;-72
2022/03/06 07:03:01;;;;;;;50.65;20.90;;;;;;;;;;4984888;28;101167;-72
2022/03/06 07:05:28;;;;;;;54.85;21.58;;;;;;;;;;4985322;28;100189;-72
2022/03/06 07:07:55;;;;;;;47.85;20.13;;;;;;;;;;4969826;28;100397;-72
2022/03/06 07:10:22;;;;;;;50.10;20.33;;;;;;;;;;4969489;28;100158;-72
2022/03/06 07:12:53;;;;;;;53.63;21.45;;;;;;;;;;4968776;28;100611;-73
2022/03/06 07:15:19;;;;;;;47.63;18.65;;;;;;;;;;4954023;28;99924;-72
2022/03/06 07:17:46;;;;;;;43.50;18.45;;;;;;;;;;4969180;28;100417;-72
2022/03/06 07:20:13;;;;;;;47.35;20.38;;;;;;;;;;4965450;28;101856;-72
2022/03/06 07:22:42;;;;;;;41.17;17.77;;;;;;;;;;4968545;28;100618;-72
2022/03/06 07:25:09;;;;;;;53.83;20.60;;;;;;;;;;4952125;28;100235;-72
2022/03/06 07:27:35;;;;;;;58.25;23.58;;;;;;;;;;4970020;28;100076;-72
2022/03/06 07:30:02;;;;;;;40.05;15.90;;;;;;;;;;4970341;28;100160;-72
2022/03/06 07:32:29;;;;;;;52.97;21.67;;;;;;;;;;4971851;28;100548;-72
2022/03/06 07:34:56;;;;;;;39.25;18.10;;;;;;;;;;4972013;28;100069;-72
2022/03/06 07:37:23;;;;;;;50.63;20.17;;;;;;;;;;4973302;28;100028;-71
2022/03/06 07:39:49;;;;;;;53.72;21.63;;;;;;;;;;4973224;28;100553;-73
2022/03/06 07:42:16;;;;;;;43.72;18.95;;;;;;;;;;4972809;28;101716;-71
2022/03/06 07:44:43;;;;;;;49.45;21.45;;;;;;;;;;4972780;28;100082;-71
2022/03/06 07:47:10;;;;;;;50.47;19.38;;;;;;;;;;4972030;28;100120;-71
2022/03/06 07:49:37;;;;;;;57.50;22.02;;;;;;;;;;4970354;28;100243;-71
2022/03/06 07:52:04;;;;;;;41.35;18.50;;;;;;;;;;4971870;28;100710;-71
2022/03/06 07:54:30;;;;;;;42.88;18.25;;;;;;;;;;4971781;28;100096;-72
2022/03/06 07:56:57;;;;;;;47.90;18.33;;;;;;;;;;4972782;28;100009;-72
2022/03/06 07:59:25;;;;;;;44.55;19.45;;;;;;;;;;4987721;28;100761;-73
2022/03/06 08:01:53;;;;;;;49.85;20.10;;;;;;;;;;4971462;28;100610;-71
2022/03/06 08:04:20;;;;;;;38.17;15.73;;;;;;;;;;4971522;28;100161;-71
2022/03/06 08:06:47;;;;;;;34.22;14.20;;;;;;;;;;4972882;28;99895;-71
2022/03/06 08:09:14;;;;;;;31.25;13.73;;;;;;;;;;4972323;28;100803;-71
2022/03/06 08:11:41;;;;;;;23.98;11.40;;;;;;;;;;4972357;28;101173;-71
2022/03/06 08:14:08;;;;;;;25.05;9.82;;;;;;;;;;4972437;28;100076;-71
2022/03/06 08:16:35;;;;;;;21.00;9.95;;;;;;;;;;4971591;28;100111;-71
2022/03/06 08:19:01;;;;;;;20.75;8.68;;;;;;;;;;4972439;28;100369;-71
2022/03/06 08:21:28;;;;;;;23.33;9.48;;;;;;;;;;4972327;28;100498;-71
2022/03/06 08:23:55;;;;;;;20.08;8.75;;;;;;;;;;4972300;28;100044;-71
2022/03/06 08:26:23;;;;;;;22.10;8.77;;;;;;;;;;4972221;28;100089;-71
2022/03/06 08:28:50;;;;;;;22.92;9.15;;;;;;;;;;4971645;28;100247;-71
2022/03/06 08:31:17;;;;;;;19.90;8.65;;;;;;;;;;4971399;28;100798;-72
2022/03/06 08:33:45;;;;;;;23.80;9.30;;;;;;;;;;4971222;28;100086;-72
2022/03/06 08:36:12;;;;;;;24.08;9.48;;;;;;;;;;4970973;28;100255;-72
2022/03/06 08:38:39;;;;;;;23.92;9.85;;;;;;;;;;4954146;28;100307;-72
2022/03/06 08:41:05;;;;;;;26.70;11.23;;;;;;;;;;4971205;28;101790;-71
2022/03/06 08:43:32;;;;;;;24.00;10.63;;;;;;;;;;4971420;28;99979;-72
2022/03/06 08:45:59;;;;;;;25.65;10.70;;;;;;;;;;4971151;28;99903;-71
2022/03/06 08:48:26;;;;;;;23.00;10.13;;;;;;;;;;4971761;28;100545;-72
2022/03/06 08:50:53;;;;;;;23.55;9.57;;;;;;;;;;4970548;28;100807;-72
2022/03/06 08:53:20;;;;;;;20.55;9.02;;;;;;;;;;4971704;28;100208;-72
2022/03/06 08:55:46;;;;;;;27.27;11.32;;;;;;;;;;4972721;28;100094;-72
2022/03/06 08:58:13;;;;;;;27.45;10.93;;;;;;;;;;4971475;28;100456;-72
2022/03/06 09:00:40;;;;;;;24.77;11.45;;;;;;;;;;4971476;28;100563;-72
2022/03/06 09:03:07;;;;;;;22.45;9.48;;;;;;;;;;4971132;28;100046;-72
2022/03/06 09:05:38;;;;;;;22.58;9.63;;;;;;;;;;4971568;28;99938;-72
2022/03/06 09:08:05;;;;;;;23.23;9.43;;;;;;;;;;4969611;28;100314;-71
2022/03/06 09:10:31;;;;;;;22.40;9.57;;;;;;;;;;4971527;28;100615;-71
2022/03/06 09:13:00;;;;;;;23.20;9.77;;;;;;;;;;4971615;28;101741;-71
2022/03/06 09:15:27;;;;;;;18.10;7.35;;;;;;;;;;4954635;28;99932;-71
2022/03/06 09:17:54;;;;;;;17.15;8.00;;;;;;;;;;4971538;28;100329;-71
2022/03/06 09:20:22;;;;;;;19.50;8.15;;;;;;;;;;4970223;28;101065;-70
2022/03/06 09:22:49;;;;;;;14.85;7.35;;;;;;;;;;4971147;28;100176;-71
2022/03/06 09:25:16;;;;;;;19.92;8.55;;;;;;;;;;4953699;28;100134;-71
2022/03/06 09:27:43;;;;;;;19.05;7.90;;;;;;;;;;4953225;28;100713;-71
2022/03/06 09:30:10;;;;;;;17.90;8.15;;;;;;;;;;4937110;28;100749;-71
2022/03/06 09:32:37;;;;;;;20.65;8.63;;;;;;;;;;4970215;28;100227;-72
2022/03/06 09:35:07;;;;;;;19.58;7.97;;;;;;;;;;4971322;28;99926;-72
2022/03/06 09:37:39;;;;;;;17.42;7.57;;;;;;;;;;4969740;28;100281;-72
2022/03/06 09:40:06;;;;;;;21.05;9.55;;;;;;;;;;4937885;28;100550;-72
2022/03/06 09:42:33;;;;;;;19.52;8.20;;;;;;;;;;4971179;28;100117;-72
2022/03/06 09:45:03;;;;;;;20.90;9.02;;;;;;;;;;4970312;28;99954;-72
2022/03/06 09:47:30;;;;;;;21.15;9.68;;;;;;;;;;4970665;28;100916;-72
2022/03/06 09:49:57;;;;;;;20.27;9.57;;;;;;;;;;4970926;28;100640;-72
2022/03/06 09:52:24;;;;;;;18.08;8.82;;;;;;;;;;4952775;28;99962;-72
2022/03/06 09:54:50;;;;;;;16.40;7.63;;;;;;;;;;4971016;28;100078;-72
2022/03/06 09:57:18;;;;;;;21.15;8.93;;;;;;;;;;4971059;28;101604;-73
2022/03/06 09:59:45;;;;;;;22.67;9.88;;;;;;;;;;4953374;28;100510;-72
2022/03/06 10:02:12;;;;;;;20.20;9.73;;;;;;;;;;4971073;28;100065;-72
2022/03/06 10:04:39;;;;;;;24.48;10.07;;;;;;;;;;4953464;28;100139;-72
2022/03/06 10:07:07;;;;;;;18.60;9.75;;;;;;;;;;4952854;28;100377;-72
2022/03/06 10:09:42;;;;;;;25.20;11.07;;;;;;;;;;4970816;28;100616;-72
2022/03/06 10:12:28;;;;;;;18.13;9.32;;;;;;;;;;4953768;28;100031;-72
2022/03/06 10:14:57;;;;;;;23.77;10.48;;;;;;;;;;4968887;28;100390;-71
2022/03/06 10:17:25;;;;;;;24.00;11.15;;;;;;;;;;4985470;28;100169;-71
2022/03/06 10:19:58;;;;;;;18.23;9.35;;;;;;;;;;4970330;28;100897;-71
2022/03/06 10:22:29;;;;;;;23.10;9.80;;;;;;;;;;4937466;28;99834;-71
2022/03/06 10:25:09;;;;;;;26.17;11.15;;;;;;;;;;4970486;28;100565;-71
2022/03/06 10:27:47;;;;;;;22.67;10.68;;;;;;;;;;4969118;28;100217;-71
2022/03/06 10:30:33;;;;;;;24.00;11.50;;;;;;;;;;4985410;28;100580;-73
2022/03/06 10:33:05;;;;;;;24.02;11.85;;;;;;;;;;4969415;28;100102;-72
2022/03/06 10:35:32;;;;;;;20.77;10.40;;;;;;;;;;4970630;28;99855;-71
2022/03/06 10:37:59;;;;;;;23.88;10.90;;;;;;;;;;4970168;28;100401;-71
2022/03/06 10:40:37;;;;;;;25.10;9.48;;;;;;;;;;4952594;28;100700;-72
2022/03/06 10:43:24;;;;;;;19.73;8.95;;;;;;;;;;4968370;28;100096;-72
2022/03/06 10:46:05;;;;;;;21.15;9.02;;;;;;;;;;4968972;28;99860;-72
2022/03/06 10:48:32;;;;;;;18.45;7.97;;;;;;;;;;4968523;28;100604;-73
2022/03/06 10:50:59;;;;;;;16.85;8.70;;;;;;;;;;4969786;28;101775;-72
2022/03/06 10:53:28;;;;;;;19.60;8.45;;;;;;;;;;4970395;28;99835;-72
2022/03/06 10:55:55;;;;;;;19.45;8.68;;;;;;;;;;4970271;28;100153;-71
2022/03/06 10:58:22;;;;;;;19.55;9.40;;;;;;;;;;4969838;28;100278;-71
2022/03/06 11:00:49;;;;;;;20.17;9.48;;;;;;;;;;4969246;28;100608;-72
2022/03/06 11:03:16;;;;;;;21.48;9.63;;;;;;;;;;4968860;28;100027;-71
2022/03/06 11:05:45;;;;;;;19.27;9.60;;;;;;;;;;4968132;28;100014;-72
2022/03/06 11:08:13;;;;;;;18.33;8.18;;;;;;;;;;4967888;28;102922;-71
2022/03/06 11:10:42;;;;;;;19.67;9.88;;;;;;;;;;4952133;28;101864;-71
2022/03/06 11:13:13;;;;;;;21.13;8.57;;;;;;;;;;4952813;28;100216;-71
2022/03/06 11:15:41;;;;;;;19.05;8.60;;;;;;;;;;4952645;28;100021;-71
2022/03/06 11:18:08;;;;;;;19.90;9.30;;;;;;;;;;4968154;28;100614;-71
2022/03/06 11:20:36;;;;;;;21.90;9.23;;;;;;;;;;4968073;28;100793;-72
2022/03/06 11:23:21;;;;;;;18.73;8.25;;;;;;;;;;4968604;28;100025;-72
2022/03/06 11:26:05;;;;;;;15.45;7.95;;;;;;;;;;4969972;28;99819;-74
2022/03/06 11:28:47;;;;;;;16.63;7.90;;;;;;;;;;4952873;28;100281;-71
2022/03/06 11:31:14;;;;;;;22.10;8.77;;;;;;;;;;4952960;28;102027;-71
2022/03/06 11:34:02;;;;;;;16.30;8.15;;;;;;;;;;4968307;28;100041;-71
2022/03/06 11:36:29;;;;;;;17.25;7.30;;;;;;;;;;4968486;28;99989;-72
2022/03/06 11:39:01;;;;;;;16.85;7.53;;;;;;;;;;4968564;28;100323;-69
2022/03/06 11:41:30;;;;;;;18.73;7.93;;;;;;;;;;4969689;28;100604;-71
2022/03/06 11:43:59;;;;;;;16.58;8.07;;;;;;;;;;4952410;28;100232;-72
2022/03/06 11:46:26;;;;;;;16.77;8.40;;;;;;;;;;4952366;28;100199;-71
2022/03/06 11:48:56;;;;;;;16.75;7.43;;;;;;;;;;4968074;28;100240;-72
2022/03/06 11:51:29;;;;;;;16.70;8.25;;;;;;;;;;4969561;28;101048;-74
2022/03/06 11:54:09;;;;;;;15.27;7.32;;;;;;;;;;4969578;28;100095;-72
2022/03/06 11:56:37;;;;;;;15.80;7.78;;;;;;;;;;4969468;28;100148;-72
2022/03/06 11:59:06;;;;;;;16.42;7.90;;;;;;;;;;4968703;28;100259;-72
2022/03/06 12:02:07;;;;;;;19.42;8.50;;;;;;;;;;4952033;28;100566;-72
2022/03/06 12:04:38;;;;;;;18.33;8.18;;;;;;;;;;4969091;28;100076;-72
2022/03/06 12:07:08;;;;;;;19.25;8.32;;;;;;;;;;4967696;28;100124;-72
2022/03/06 12:09:40;;;;;;;18.67;7.80;;;;;;;;;;4952268;28;103248;-71
2022/03/06 12:12:09;;;;;;;22.50;9.07;;;;;;;;;;4952114;28;100573;-72
2022/03/06 12:14:43;;;;;;;16.75;8.18;;;;;;;;;;4968153;28;100130;-72
2022/03/06 12:17:10;;;;;;;16.30;7.43;;;;;;;;;;4972353;28;100045;-71
2022/03/06 12:19:43;;;;;;;16.00;8.15;;;;;;;;;;4972390;28;100261;-72
2022/03/06 12:22:29;;;;;;;20.38;9.45;;;;;;;;;;4972430;28;100612;-71
2022/03/06 12:25:03;;;;;;;16.15;7.30;;;;;;;;;;4970969;28;100769;-71
2022/03/06 12:27:33;;;;;;;16.15;7.35;;;;;;;;;;4972795;28;99871;-71
2022/03/06 12:30:03;;;;;;;16.98;7.68;;;;;;;;;;4955195;28;100961;-71
2022/03/06 12:32:31;;;;;;;16.98;8.18;;;;;;;;;;4970538;28;101728;-72
2022/03/06 12:35:10;;;;;;;17.52;7.13;;;;;;;;;;4972301;28;100061;-72
2022/03/06 12:37:38;;;;;;;12.23;6.55;;;;;;;;;;4972673;28;99958;-72
2022/03/06 12:40:07;;;;;;;14.73;7.03;;;;;;;;;;4972357;28;100556;-71
2022/03/06 12:42:37;;;;;;;14.95;7.20;;;;;;;;;;4971606;28;100891;-71
2022/03/06 12:45:11;;;;;;;17.88;7.82;;;;;;;;;;4972076;28;100028;-72
2022/03/06 12:47:39;;;;;;;12.20;6.68;;;;;;;;;;4955684;28;99999;-71
2022/03/06 12:50:12;;;;;;;17.27;7.13;;;;;;;;;;4954504;28;100417;-71
2022/03/06 12:52:39;;;;;;;20.17;7.55;;;;;;;;;;4970790;28;100626;-72
2022/03/06 12:55:10;;;;;;;20.08;8.25;;;;;;;;;;4971275;28;99985;-72
2022/03/06 12:57:39;;;;;;;17.20;7.72;;;;;;;;;;4970730;28;100109;-72
2022/03/06 13:00:10;;;;;;;14.77;6.35;;;;;;;;;;4972085;28;100385;-72
2022/03/06 13:02:37;;;;;;;16.15;8.02;;;;;;;;;;4970612;28;100595;-72
2022/03/06 13:05:08;;;;;;;16.60;7.63;;;;;;;;;;4972029;28;100115;-72
2022/03/06 13:07:44;;;;;;;15.45;6.93;;;;;;;;;;4970593;28;100038;-72
2022/03/06 13:10:14;;;;;;;18.23;6.63;;;;;;;;;;4971704;28;100398;-72
2022/03/06 13:12:42;;;;;;;17.10;7.22;;;;;;;;;;4971589;28;100595;-72
2022/03/06 13:15:11;;;;;;;16.83;7.65;;;;;;;;;;4970433;28;100069;-72
2022/03/06 13:17:42;;;;;;;16.63;6.78;;;;;;;;;;4970727;28;100004;-72
2022/03/06 13:20:10;;;;;;;18.65;8.25;;;;;;;;;;4971449;28;100136;-71
2022/03/06 13:22:36;;;;;;;18.63;8.18;;;;;;;;;;4971701;28;100556;-72
2022/03/06 13:25:04;;;;;;;16.75;7.82;;;;;;;;;;4970531;28;100037;-72
2022/03/06 13:27:33;;;;;;;17.65;7.70;;;;;;;;;;4970917;28;99982;-72
2022/03/06 13:30:04;;;;;;;20.13;9.10;;;;;;;;;;4970003;28;100662;-72
2022/03/06 13:32:34;;;;;;;22.55;10.10;;;;;;;;;;4970653;28;100687;-71
2022/03/06 13:35:01;;;;;;;21.60;8.82;;;;;;;;;;4970414;28;100169;-71
2022/03/06 13:37:35;;;;;;;19.48;8.75;;;;;;;;;;4970026;28;100001;-72
2022/03/06 13:40:12;;;;;;;19.75;9.38;;;;;;;;;;4970747;28;100502;-71
2022/03/06 13:42:39;;;;;;;20.92;8.68;;;;;;;;;;4970053;28;100785;-71
2022/03/06 13:45:09;;;;;;;25.27;9.80;;;;;;;;;;4970182;28;100067;-71
2022/03/06 13:47:45;;;;;;;22.25;9.10;;;;;;;;;;4953671;28;100055;-71
2022/03/06 13:50:20;;;;;;;20.60;8.82;;;;;;;;;;4971037;28;100177;-72
2022/03/06 13:52:47;;;;;;;19.40;8.38;;;;;;;;;;4969683;28;101094;-70
2022/03/06 13:55:14;;;;;;;17.10;6.30;;;;;;;;;;4971228;28;99957;-71
2022/03/06 13:58:03;;;;;;;17.02;7.55;;;;;;;;;;4938011;28;99858;-72
2022/03/06 14:00:33;;;;;;;17.13;7.40;;;;;;;;;;4969265;28;100327;-71
2022/03/06 14:03:04;;;;;;;18.95;8.43;;;;;;;;;;4969612;28;100540;-71
2022/03/06 14:05:39;;;;;;;16.95;7.00;;;;;;;;;;4966597;28;100068;-71
2022/03/06 14:08:16;;;;;;;21.27;8.32;;;;;;;;;;4969502;28;100089;-72
2022/03/06 14:10:56;;;;;;;19.95;8.30;;;;;;;;;;4969481;28;100203;-72
2022/03/06 14:13:37;;;;;;;18.83;8.02;;;;;;;;;;4969241;28;101247;-72
2022/03/06 14:16:07;;;;;;;16.85;7.15;;;;;;;;;;4970680;28;100123;-72
2022/03/06 14:18:47;;;;;;;16.23;7.25;;;;;;;;;;4953596;28;100156;-72